createdAt,value
2018-12-21T00:02:13.558Z,95974.09
2018-12-21T00:04:41.772Z,95966.38
2018-12-21T00:07:10.111Z,95966.69
2018-12-21T00:09:38.327Z,95961.85
2018-12-21T00:12:06.770Z,95970.72
2018-12-21T00:14:34.991Z,95969.58
2018-12-21T00:17:03.226Z,95967.97
2018-12-21T00:19:31.495Z,95967.61
2018-12-21T00:21:59.754Z,95965.56
2018-12-21T00:24:27.971Z,95964.55
2018-12-21T00:26:56.227Z,95960.43
2018-12-21T00:29:24.505Z,95963.77
2018-12-21T00:31:58.393Z,95956.03
2018-12-21T00:34:32.311Z,95960.55
2018-12-21T00:37:06.612Z,95961.15
2018-12-21T00:39:40.445Z,95958.78
2018-12-21T00:45:06.368Z,95951.77
2018-12-21T00:47:34.657Z,95953.61
2018-12-21T00:50:04.076Z,95951.19
2018-12-21T00:52:32.337Z,95946.55
2018-12-21T00:55:00.635Z,95949.66
2018-12-21T00:57:28.888Z,95949.13
2018-12-21T00:59:57.163Z,95946.05
2018-12-21T01:02:25.423Z,95934.78
2018-12-21T01:04:53.644Z,95927.70
2018-12-21T01:07:21.977Z,95933.01
2018-12-21T01:09:50.205Z,95934.95
2018-12-21T01:12:18.747Z,95939.53
2018-12-21T01:14:47.467Z,95936.56
2018-12-21T01:17:15.711Z,95940.12
2018-12-21T01:19:44.189Z,95941.36
2018-12-21T01:22:12.474Z,95945.70
2018-12-21T01:24:40.759Z,95944.97
2018-12-21T01:27:08.976Z,95951.27
2018-12-21T01:29:37.293Z,95955.75
2018-12-21T01:32:05.774Z,95961.55
2018-12-21T01:34:34.055Z,95963.55
2018-12-21T01:37:02.331Z,95943.64
2018-12-21T01:39:30.608Z,95953.61
2018-12-21T01:41:58.882Z,95953.10
2018-12-21T01:44:27.116Z,95946.77
2018-12-21T01:46:55.361Z,95954.73
2018-12-21T01:49:23.583Z,95951.13
2018-12-21T01:51:51.981Z,95955.63
2018-12-21T01:54:20.257Z,95952.47
2018-12-21T01:56:48.503Z,95951.67
2018-12-21T01:59:16.809Z,95944.86
2018-12-21T02:01:45.043Z,95949.13
2018-12-21T02:04:13.267Z,95939.11
2018-12-21T02:06:41.528Z,95934.83
2018-12-21T02:09:09.853Z,95934.60
2018-12-21T02:11:38.196Z,95933.26
2018-12-21T02:14:06.530Z,95938.45
2018-12-21T02:16:34.858Z,95939.70
2018-12-21T02:19:03.093Z,95936.90
2018-12-21T02:21:31.346Z,95921.98
2018-12-21T02:23:59.553Z,95923.16
2018-12-21T02:26:27.851Z,95919.48
2018-12-21T02:28:56.059Z,95921.99
2018-12-21T02:31:24.357Z,95917.57
2018-12-21T02:33:52.705Z,95919.17
2018-12-21T02:36:20.931Z,95915.19
2018-12-21T02:38:49.145Z,95901.91
2018-12-21T02:41:17.459Z,95912.62
2018-12-21T02:43:45.685Z,95909.17
2018-12-21T02:46:13.926Z,95904.88
2018-12-21T02:48:42.249Z,95905.90
2018-12-21T02:51:10.623Z,95901.25
2018-12-21T02:53:38.886Z,95906.22
2018-12-21T02:56:07.118Z,95909.38
2018-12-21T02:58:35.529Z,95904.73
2018-12-21T03:01:03.817Z,95914.03
2018-12-21T03:03:32.116Z,95905.48
2018-12-21T03:06:00.594Z,95913.01
2018-12-21T03:08:28.855Z,95915.20
2018-12-21T03:10:57.128Z,95902.97
2018-12-21T03:13:25.370Z,95903.09
2018-12-21T03:15:53.677Z,95899.19
2018-12-21T03:18:22.158Z,95891.30
2018-12-21T03:20:50.398Z,95887.16
2018-12-21T03:23:18.621Z,95881.77
2018-12-21T03:25:46.983Z,95882.67
2018-12-21T03:28:15.207Z,95878.02
2018-12-21T03:30:43.656Z,95883.25
2018-12-21T03:33:11.926Z,95887.98
2018-12-21T03:35:40.304Z,95886.73
2018-12-21T03:38:08.684Z,95881.27
2018-12-21T03:40:37.582Z,95886.42
2018-12-21T03:43:05.889Z,95879.06
2018-12-21T03:45:34.738Z,95886.80
2018-12-21T03:48:02.994Z,95879.94
2018-12-21T03:50:31.409Z,95871.53
2018-12-21T03:52:59.616Z,95858.33
2018-12-21T03:55:27.956Z,95866.14
2018-12-21T03:57:56.179Z,95859.86
2018-12-21T04:00:24.479Z,95857.59
2018-12-21T04:02:52.872Z,95856.27
2018-12-21T04:05:21.173Z,95846.45
2018-12-21T04:07:49.474Z,95829.58
2018-12-21T04:10:17.819Z,95829.58
2018-12-21T04:12:46.112Z,95834.38
2018-12-21T04:15:14.416Z,95828.02
2018-12-21T04:17:42.731Z,95834.38
2018-12-21T04:20:11.031Z,95831.66
2018-12-21T04:22:39.551Z,95834.30
2018-12-21T04:25:07.843Z,95834.58
2018-12-21T04:27:36.063Z,95829.42
2018-12-21T04:30:06.523Z,95828.38
2018-12-21T04:32:34.839Z,95826.97
2018-12-21T04:35:03.145Z,95828.02
2018-12-21T04:37:31.449Z,95824.61
2018-12-21T04:39:59.789Z,95821.73
2018-12-21T04:42:28.085Z,95811.20
2018-12-21T04:44:56.420Z,95807.66
2018-12-21T04:47:24.734Z,95792.03
2018-12-21T04:49:53.101Z,95802.00
2018-12-21T04:52:21.313Z,95803.41
2018-12-21T04:54:49.605Z,95804.94
2018-12-21T04:57:17.810Z,95806.20
2018-12-21T04:59:46.438Z,95800.08
2018-12-21T05:02:14.661Z,95801.12
2018-12-21T05:04:42.878Z,95805.75
2018-12-21T05:07:12.639Z,95792.05
2018-12-21T05:09:41.167Z,95791.73
2018-12-21T05:12:09.541Z,95790.55
2018-12-21T05:14:37.920Z,95787.17
2018-12-21T05:17:06.223Z,95782.81
2018-12-21T05:19:34.443Z,95791.14
2018-12-21T05:22:02.691Z,95785.61
2018-12-21T05:24:30.902Z,95788.69
2018-12-21T05:26:59.120Z,95785.08
2018-12-21T05:29:27.333Z,95785.78
2018-12-21T05:31:55.535Z,95785.95
2018-12-21T05:34:23.904Z,95779.83
2018-12-21T05:36:52.273Z,95774.09
2018-12-21T05:39:20.657Z,95769.08
2018-12-21T05:41:48.967Z,95760.67
2018-12-21T05:44:17.196Z,95754.87
2018-12-21T05:46:45.436Z,95749.85
2018-12-21T05:49:13.660Z,95748.92
2018-12-21T05:51:41.903Z,95742.30
2018-12-21T05:54:10.136Z,95736.83
2018-12-21T05:56:38.438Z,95745.55
2018-12-21T05:59:06.684Z,95739.66
2018-12-21T06:01:34.907Z,95734.55
2018-12-21T06:04:03.231Z,95732.13
2018-12-21T06:06:31.559Z,95728.77
2018-12-21T06:08:59.763Z,95729.13
2018-12-21T06:11:28.038Z,95720.40
2018-12-21T06:13:56.327Z,95717.15
2018-12-21T06:16:24.694Z,95723.48
2018-12-21T06:18:53.075Z,95717.73
2018-12-21T06:21:21.346Z,95718.80
2018-12-21T06:23:49.630Z,95706.19
2018-12-21T06:26:17.859Z,95707.77
2018-12-21T06:28:46.128Z,95705.08
2018-12-21T06:31:14.701Z,95698.11
2018-12-21T06:33:42.941Z,95696.27
2018-12-21T06:36:11.421Z,95696.33
2018-12-21T06:38:39.714Z,95686.52
2018-12-21T06:41:08.019Z,95679.17
2018-12-21T06:43:36.343Z,95680.45
2018-12-21T06:46:04.728Z,95679.95
2018-12-21T06:48:33.006Z,95681.84
2018-12-21T06:51:01.383Z,95686.44
2018-12-21T06:53:29.612Z,95679.87
2018-12-21T06:55:57.832Z,95674.98
2018-12-21T06:58:26.051Z,95668.55
2018-12-21T07:00:54.839Z,95679.05
2018-12-21T07:03:23.113Z,95671.47
2018-12-21T07:05:51.344Z,95664.91
2018-12-21T07:08:19.604Z,95665.22
2018-12-21T07:10:47.872Z,95652.62
2018-12-21T07:13:16.174Z,95652.84
2018-12-21T07:15:44.574Z,95652.45
2018-12-21T07:18:12.827Z,95642.45
2018-12-21T07:20:41.051Z,95654.14
2018-12-21T07:23:09.383Z,95646.84
2018-12-21T07:25:37.656Z,95649.06
2018-12-21T07:28:06.007Z,95648.39
2018-12-21T07:30:35.004Z,95646.11
2018-12-21T07:33:03.236Z,95645.09
2018-12-21T07:35:31.470Z,95639.21
2018-12-21T07:37:59.756Z,95641.07
2018-12-21T07:40:27.967Z,95639.55
2018-12-21T07:42:56.300Z,95633.72
2018-12-21T07:45:24.658Z,95627.80
2018-12-21T07:47:52.934Z,95632.28
2018-12-21T07:50:21.235Z,95624.37
2018-12-21T07:52:49.636Z,95625.23
2018-12-21T07:55:17.984Z,95621.27
2018-12-21T07:57:46.226Z,95615.61
2018-12-21T08:00:14.551Z,95612.53
2018-12-21T08:02:42.785Z,95616.14
2018-12-21T08:05:11.299Z,95608.45
2018-12-21T08:07:39.518Z,95608.17
2018-12-21T08:10:12.425Z,95604.47
2018-12-21T08:12:40.638Z,95598.44
2018-12-21T08:15:09.031Z,95601.62
2018-12-21T08:17:37.287Z,95602.78
2018-12-21T08:20:06.993Z,95601.74
2018-12-21T08:22:35.200Z,95598.05
2018-12-21T08:25:03.857Z,95599.08
2018-12-21T08:27:32.144Z,95597.77
2018-12-21T08:30:00.527Z,95599.45
2018-12-21T08:32:28.738Z,95587.55
2018-12-21T08:34:57.027Z,95588.98
2018-12-21T08:37:25.230Z,95590.63
2018-12-21T08:39:53.510Z,95590.61
2018-12-21T08:42:21.819Z,95583.30
2018-12-21T08:44:50.068Z,95582.45
2018-12-21T08:47:18.342Z,95579.84
2018-12-21T08:49:46.623Z,95581.05
2018-12-21T08:52:14.894Z,95583.19
2018-12-21T08:54:43.284Z,95581.05
2018-12-21T08:57:11.567Z,95583.51
2018-12-21T08:59:40.306Z,95580.35
2018-12-21T09:02:08.618Z,95574.45
2018-12-21T09:04:36.914Z,95584.23
2018-12-21T09:07:05.270Z,95577.69
2018-12-21T09:09:33.512Z,95583.73
2018-12-21T09:12:01.823Z,95592.11
2018-12-21T09:14:30.095Z,95599.25
2018-12-21T09:16:58.488Z,95606.07
2018-12-21T09:19:26.749Z,95619.33
2018-12-21T09:21:55.122Z,95621.23
2018-12-21T09:24:23.619Z,95621.66
2018-12-21T09:26:51.847Z,95633.42
2018-12-21T09:29:20.181Z,95634.73
2018-12-21T09:31:48.571Z,95641.03
2018-12-21T09:34:16.819Z,95645.34
2018-12-21T09:36:45.079Z,95656.75
2018-12-21T09:39:13.377Z,95667.65
2018-12-21T09:41:41.653Z,95683.88
2018-12-21T09:44:09.870Z,95671.23
2018-12-21T09:46:38.182Z,95665.21
2018-12-21T09:49:06.392Z,95661.16
2018-12-21T09:51:34.855Z,95651.86
2018-12-21T09:54:09.824Z,95637.59
2018-12-21T09:56:33.483Z,95615.80
2018-12-21T09:59:02.155Z,95606.59
2018-12-21T10:01:30.381Z,95600.44
2018-12-21T10:03:58.704Z,95592.27
2018-12-21T10:06:27.998Z,95588.19
2018-12-21T10:08:56.266Z,95588.19
2018-12-21T10:11:24.487Z,95586.05
2018-12-21T10:13:52.724Z,95583.22
2018-12-21T10:16:21.081Z,95566.89
2018-12-21T10:18:49.323Z,95552.94
2018-12-21T10:21:17.673Z,95534.46
2018-12-21T10:23:46.027Z,95537.25
2018-12-21T10:26:14.303Z,95519.98
2018-12-21T10:28:42.633Z,95506.78
2018-12-21T10:31:11.159Z,95513.59
2018-12-21T10:33:39.375Z,95500.83
2018-12-21T10:36:07.743Z,95506.95
2018-12-21T10:38:35.986Z,95492.66
2018-12-21T10:41:04.204Z,95496.64
2018-12-21T10:43:32.551Z,95475.23
2018-12-21T10:46:00.831Z,95467.89
2018-12-21T10:48:29.122Z,95465.23
2018-12-21T10:50:57.485Z,95455.31
2018-12-21T10:53:25.735Z,95449.58
2018-12-21T10:55:54.039Z,95452.41
2018-12-21T10:58:22.522Z,95447.98
2018-12-21T11:00:50.803Z,95432.32
2018-12-21T11:03:19.276Z,95425.17
2018-12-21T11:05:47.526Z,95416.58
2018-12-21T11:08:15.747Z,95400.05
2018-12-21T11:10:45.890Z,95403.03
2018-12-21T11:13:14.535Z,95397.81
2018-12-21T11:15:42.764Z,95393.62
2018-12-21T11:18:11.083Z,95377.75
2018-12-21T11:20:39.306Z,95363.30
2018-12-21T11:23:07.736Z,95348.80
2018-12-21T11:25:36.115Z,95350.70
2018-12-21T11:28:04.394Z,95342.44
2018-12-21T11:30:32.739Z,95328.96
2018-12-21T11:33:01.018Z,95316.23
2018-12-21T11:35:29.323Z,95338.31
2018-12-21T11:37:57.651Z,95293.06
2018-12-21T11:40:25.868Z,95289.77
2018-12-21T11:42:54.146Z,95286.03
2018-12-21T11:45:22.383Z,95249.98
2018-12-21T11:47:50.802Z,95243.63
2018-12-21T11:50:19.035Z,95244.11
2018-12-21T11:52:47.484Z,95233.86
2018-12-21T11:55:15.841Z,95248.91
2018-12-21T11:57:44.072Z,95236.97
2018-12-21T12:00:12.387Z,95237.91
2018-12-21T12:02:40.610Z,95234.32
2018-12-21T12:05:08.907Z,95246.25
2018-12-21T12:07:37.162Z,95246.76
2018-12-21T12:10:07.042Z,95237.53
2018-12-21T12:12:35.275Z,95240.44
2018-12-21T12:15:05.199Z,95230.73
2018-12-21T12:17:33.571Z,95229.70
2018-12-21T12:20:01.792Z,95207.28
2018-12-21T12:22:30.095Z,95204.31
2018-12-21T12:24:58.428Z,95204.94
2018-12-21T12:27:26.769Z,95185.42
2018-12-21T12:29:55.063Z,95191.19
2018-12-21T12:32:23.359Z,95187.64
2018-12-21T12:34:51.579Z,95192.35
2018-12-21T12:37:19.822Z,95196.46
2018-12-21T12:39:48.027Z,95194.02
2018-12-21T12:42:16.312Z,95189.55
2018-12-21T12:44:44.558Z,95181.83
2018-12-21T12:47:12.954Z,95181.67
2018-12-21T12:49:41.148Z,95174.82
2018-12-21T12:52:09.450Z,95158.28
2018-12-21T12:54:37.816Z,95162.95
2018-12-21T12:57:06.264Z,95147.66
2018-12-21T12:59:34.579Z,95142.41
2018-12-21T13:02:02.797Z,95136.03
2018-12-21T13:04:31.144Z,95132.87
2018-12-21T13:06:59.357Z,95121.39
2018-12-21T13:09:27.599Z,95130.06
2018-12-21T13:11:55.815Z,95129.61
2018-12-21T13:14:24.274Z,95122.78
2018-12-21T13:16:52.520Z,95128.95
2018-12-21T13:19:20.771Z,95124.11
2018-12-21T13:21:49.028Z,95131.35
2018-12-21T13:24:17.297Z,95129.41
2018-12-21T13:26:45.560Z,95133.07
2018-12-21T13:29:13.910Z,95132.16
2018-12-21T13:31:42.239Z,95138.98
2018-12-21T13:34:10.555Z,95126.09
2018-12-21T13:36:38.769Z,95120.79
2018-12-21T13:39:08.112Z,95115.42
2018-12-21T13:41:36.399Z,95115.31
2018-12-21T13:44:04.681Z,95113.84
2018-12-21T13:46:33.033Z,95125.92
2018-12-21T13:49:01.458Z,95115.13
2018-12-21T13:51:29.700Z,95126.66
2018-12-21T13:53:57.906Z,95130.47
2018-12-21T13:56:26.213Z,95145.80
2018-12-21T13:58:54.426Z,95129.14
2018-12-21T14:01:22.663Z,95131.96
2018-12-21T14:03:50.872Z,95144.27
2018-12-21T14:06:19.195Z,95149.11
2018-12-21T14:08:47.467Z,95139.03
2018-12-21T14:11:15.753Z,95153.83
2018-12-21T14:13:44.011Z,95143.17
2018-12-21T14:16:12.301Z,95141.58
2018-12-21T14:18:40.534Z,95146.61
2018-12-21T14:21:08.775Z,95148.81
2018-12-21T14:23:37.014Z,95134.52
2018-12-21T14:26:05.301Z,95132.63
2018-12-21T14:28:33.559Z,95121.91
2018-12-21T14:31:01.844Z,95129.61
2018-12-21T14:33:30.058Z,95141.81
2018-12-21T14:35:58.319Z,95147.42
2018-12-21T14:38:26.528Z,95153.27
2018-12-21T14:40:54.948Z,95147.39
2018-12-21T14:43:23.158Z,95149.59
2018-12-21T14:45:51.416Z,95144.03
2018-12-21T14:48:19.643Z,95158.92
2018-12-21T14:50:47.883Z,95142.09
2018-12-21T14:53:16.111Z,95149.62
2018-12-21T14:55:44.342Z,95153.04
2018-12-21T14:58:12.562Z,95156.80
2018-12-21T15:00:40.948Z,95170.73
2018-12-21T15:03:09.163Z,95159.27
2018-12-21T15:05:37.414Z,95156.68
2018-12-21T15:08:05.687Z,95148.87
2018-12-21T15:10:33.962Z,95171.59
2018-12-21T15:13:02.180Z,95163.08
2018-12-21T15:15:30.426Z,95169.48
2018-12-21T15:17:58.678Z,95184.92
2018-12-21T15:20:26.955Z,95183.93
2018-12-21T15:22:55.221Z,95169.72
2018-12-21T15:25:23.446Z,95156.94
2018-12-21T15:27:51.706Z,95192.16
2018-12-21T15:30:20.090Z,95194.02
2018-12-21T15:32:48.363Z,95166.58
2018-12-21T15:35:16.574Z,95179.23
2018-12-21T15:37:44.814Z,95160.52
2018-12-21T15:40:13.019Z,95208.81
2018-12-21T15:42:41.238Z,95216.47
2018-12-21T15:45:09.490Z,95184.74
2018-12-21T15:47:37.732Z,95209.57
2018-12-21T15:50:09.977Z,95185.66
2018-12-21T15:52:38.263Z,95188.02
2018-12-21T15:55:06.536Z,95197.00
2018-12-21T15:57:34.889Z,95184.19
2018-12-21T16:00:04.064Z,95177.58
2018-12-21T16:02:32.307Z,95189.05
2018-12-21T16:05:00.561Z,95177.89
2018-12-21T16:07:28.836Z,95182.20
2018-12-21T16:09:57.190Z,95198.25
2018-12-21T16:12:25.567Z,95194.25
2018-12-21T16:14:53.878Z,95197.48
2018-12-21T16:17:22.361Z,95203.08
2018-12-21T16:19:50.678Z,95207.16
2018-12-21T16:22:18.944Z,95214.73
2018-12-21T16:24:47.206Z,95208.61
2018-12-21T16:27:15.467Z,95234.49
2018-12-21T16:29:43.691Z,95218.75
2018-12-21T16:32:12.217Z,95207.06
2018-12-21T16:34:40.583Z,95222.26
2018-12-21T16:37:08.845Z,95222.02
2018-12-21T16:39:37.078Z,95229.25
2018-12-21T16:42:05.337Z,95241.80
2018-12-21T16:44:33.607Z,95244.53
2018-12-21T16:47:01.935Z,95243.48
2018-12-21T16:49:30.328Z,95257.09
2018-12-21T16:51:58.590Z,95253.11
2018-12-21T16:54:26.803Z,95238.93
2018-12-21T16:56:55.100Z,95275.27
2018-12-21T16:59:23.358Z,95243.03
2018-12-21T17:01:51.628Z,95242.73
2018-12-21T17:04:19.823Z,95239.56
2018-12-21T17:06:48.080Z,95249.70
2018-12-21T17:09:16.327Z,95245.92
2018-12-21T17:11:44.607Z,95235.56
2018-12-21T17:14:12.816Z,95225.91
2018-12-21T17:16:41.058Z,95231.02
2018-12-21T17:19:09.379Z,95245.98
2018-12-21T17:21:37.627Z,95270.58
2018-12-21T17:24:05.971Z,95295.92
2018-12-21T17:26:34.180Z,95256.68
2018-12-21T17:29:02.535Z,95268.15
2018-12-21T17:31:30.775Z,95259.67
2018-12-21T17:33:59.076Z,95268.77
2018-12-21T17:36:27.284Z,95253.77
2018-12-21T17:38:55.565Z,95271.69
2018-12-21T17:41:23.787Z,95282.11
2018-12-21T17:43:52.216Z,95267.42
2018-12-21T17:46:20.430Z,95270.63
2018-12-21T17:48:48.772Z,95269.25
2018-12-21T17:51:16.987Z,95289.53
2018-12-21T17:53:45.382Z,95281.25
2018-12-21T17:56:13.919Z,95272.72
2018-12-21T17:58:42.279Z,95270.05
2018-12-21T18:01:10.499Z,95292.50
2018-12-21T18:03:39.842Z,95282.37
2018-12-21T18:06:08.119Z,95282.90
2018-12-21T18:08:36.515Z,95279.95
2018-12-21T18:11:04.788Z,95283.42
2018-12-21T18:13:33.052Z,95276.48
2018-12-21T18:16:01.327Z,95282.15
2018-12-21T18:18:29.606Z,95283.16
2018-12-21T18:20:57.934Z,95281.04
2018-12-21T18:23:26.255Z,95269.23
2018-12-21T18:25:54.467Z,95297.83
2018-12-21T18:28:26.325Z,95272.47
2018-12-21T18:30:56.919Z,95286.41
2018-12-21T18:33:25.206Z,95296.28
2018-12-21T18:35:53.423Z,95271.48
2018-12-21T18:38:21.795Z,95286.41
2018-12-21T18:40:50.159Z,95298.77
2018-12-21T18:43:18.610Z,95295.56
2018-12-21T18:45:46.873Z,95287.05
2018-12-21T18:48:15.343Z,95278.73
2018-12-21T18:50:43.638Z,95277.38
2018-12-21T18:53:11.868Z,95281.12
2018-12-21T18:55:40.275Z,95293.93
2018-12-21T18:58:08.494Z,95285.67
2018-12-21T19:00:36.743Z,95285.94
2018-12-21T19:03:05.132Z,95283.32
2018-12-21T19:05:33.467Z,95279.53
2018-12-21T19:08:01.783Z,95276.90
2018-12-21T19:10:30.184Z,95275.60
2018-12-21T19:12:58.563Z,95275.81
2018-12-21T19:15:26.846Z,95282.52
2018-12-21T19:17:55.207Z,95290.27
2018-12-21T19:20:23.495Z,95296.69
2018-12-21T19:22:51.764Z,95294.28
2018-12-21T19:25:20.020Z,95307.91
2018-12-21T19:27:48.539Z,95288.09
2018-12-21T19:30:16.903Z,95277.98
2018-12-21T19:32:45.272Z,95288.66
2018-12-21T19:35:13.567Z,95282.52
2018-12-21T19:37:41.906Z,95292.41
2018-12-21T19:40:10.246Z,95292.11
2018-12-21T19:42:38.539Z,95287.58
2018-12-21T19:45:08.398Z,95306.55
2018-12-21T19:47:36.670Z,95295.09
2018-12-21T19:50:07.786Z,95309.53
2018-12-21T19:52:35.999Z,95311.91
2018-12-21T19:55:15.418Z,95308.95
2018-12-21T19:57:43.648Z,95307.34
2018-12-21T20:00:11.912Z,95296.89
2018-12-21T20:02:40.127Z,95319.08
2018-12-21T20:05:08.400Z,95292.63
2018-12-21T20:07:36.700Z,95287.00
2018-12-21T20:10:08.411Z,95293.97
2018-12-21T20:12:36.664Z,95298.75
2018-12-21T20:15:07.178Z,95295.62
2018-12-21T20:17:35.410Z,95307.34
2018-12-21T20:20:04.095Z,95304.36
2018-12-21T20:22:32.507Z,95298.50
2018-12-21T20:25:00.794Z,95304.92
2018-12-21T20:27:29.052Z,95313.20
2018-12-21T20:29:57.340Z,95307.67
2018-12-21T20:32:25.590Z,95290.06
2018-12-21T20:34:54.120Z,95301.77
2018-12-21T20:37:22.358Z,95304.72
2018-12-21T20:39:51.088Z,95304.95
2018-12-21T20:42:19.418Z,95288.19
2018-12-21T20:44:47.694Z,95328.53
2018-12-21T20:47:16.773Z,95314.88
2018-12-21T20:49:45.060Z,95314.36
2018-12-21T20:52:13.290Z,95311.64
2018-12-21T20:54:41.628Z,95356.27
2018-12-21T20:57:10.109Z,95320.24
2018-12-21T20:59:39.377Z,95313.80
2018-12-21T21:02:07.653Z,95321.56
2018-12-21T21:04:35.884Z,95299.39
2018-12-21T21:07:04.164Z,95326.38
2018-12-21T21:09:32.395Z,95318.70
2018-12-21T21:12:00.623Z,95309.88
2018-12-21T21:14:28.843Z,95321.89
2018-12-21T21:16:57.100Z,95297.84
2018-12-21T21:19:25.831Z,95325.34
2018-12-21T21:21:54.151Z,95311.45
2018-12-21T21:24:22.469Z,95299.96
2018-12-21T21:26:50.688Z,95325.41
2018-12-21T21:29:18.972Z,95312.87
2018-12-21T21:31:47.242Z,95335.81
2018-12-21T21:34:15.539Z,95318.72
2018-12-21T21:36:43.948Z,95317.12
2018-12-21T21:39:12.199Z,95310.16
2018-12-21T21:41:40.453Z,95314.73
2018-12-21T21:44:08.823Z,95314.97
2018-12-21T21:46:37.056Z,95304.85
2018-12-21T21:49:05.367Z,95303.20
2018-12-21T21:51:33.587Z,95291.47
2018-12-21T21:54:01.840Z,95294.66
2018-12-21T21:56:30.187Z,95293.88
2018-12-21T21:58:58.423Z,95301.89
2018-12-21T22:01:26.651Z,95298.44
2018-12-21T22:03:54.886Z,95294.92
2018-12-21T22:06:23.125Z,95292.01
2018-12-21T22:08:51.377Z,95288.51
2018-12-21T22:11:19.707Z,95300.59
2018-12-21T22:13:47.956Z,95303.78
2018-12-21T22:16:16.206Z,95295.77
2018-12-21T22:18:44.435Z,95282.69
2018-12-21T22:21:12.710Z,95305.98
2018-12-21T22:23:41.088Z,95289.64
2018-12-21T22:26:09.670Z,95288.55
2018-12-21T22:28:38.821Z,95288.30
2018-12-21T22:31:07.156Z,95295.23
2018-12-21T22:33:35.418Z,95279.45
2018-12-21T22:36:03.803Z,95274.11
2018-12-21T22:38:32.034Z,95278.44
2018-12-21T22:41:00.366Z,95282.98
2018-12-21T22:43:28.632Z,95284.59
2018-12-21T22:45:56.883Z,95261.34
2018-12-21T22:48:25.144Z,95273.36
2018-12-21T22:50:53.468Z,95284.89
2018-12-21T22:53:21.778Z,95266.69
2018-12-21T22:55:50.136Z,95272.05
2018-12-21T22:58:18.498Z,95285.66
2018-12-21T23:00:46.746Z,95276.00
2018-12-21T23:03:14.986Z,95261.86
2018-12-21T23:05:43.218Z,95270.67
2018-12-21T23:08:11.439Z,95253.83
2018-12-21T23:10:39.704Z,95270.95
2018-12-21T23:13:07.916Z,95256.25
2018-12-21T23:15:36.153Z,95262.41
2018-12-21T23:18:04.429Z,95264.00
2018-12-21T23:20:32.746Z,95274.70
2018-12-21T23:23:00.988Z,95264.81
2018-12-21T23:25:29.254Z,95272.55
2018-12-21T23:28:04.791Z,95257.06
2018-12-21T23:30:27.830Z,95257.87
2018-12-21T23:32:56.101Z,95246.86
2018-12-21T23:35:24.353Z,95258.86
2018-12-21T23:37:52.698Z,95246.02
2018-12-21T23:40:21.136Z,95273.34
2018-12-21T23:42:49.411Z,95264.25
2018-12-21T23:45:17.886Z,95273.34
2018-12-21T23:47:46.118Z,95251.11
2018-12-21T23:50:14.390Z,95264.50
2018-12-21T23:52:42.695Z,95274.08
2018-12-21T23:55:11.035Z,95290.66
2018-12-21T23:57:39.246Z,95310.77
